sensor_id;sensor_type;location;lat;lon;timestamp;pressure;altitude;pressure_sealevel;temperature;humidity
57668;BME280;43499;52.366;12.912;2022-11-11T00:01:17;102515.44;;;8.19;100.00
57668;BME280;43499;52.366;12.912;2022-11-11T00:02:48;102508.31;;;8.18;100.00
57668;BME280;43499;52.366;12.912;2022-11-11T00:05:13;102498.06;;;8.12;100.00
57668;BME280;43499;52.366;12.912;2022-11-11T00:07:11;102498.97;;;8.13;100.00
57668;BME280;43499;52.366;12.912;2022-11-11T00:08:37;102516.00;;;8.16;100.00
57668;BME280;43499;52.366;12.912;2022-11-11T00:10:07;102498.59;;;8.17;100.00
57668;BME280;43499;52.366;12.912;2022-11-11T00:12:10;102507.94;;;8.15;100.00
57668;BME280;43499;52.366;12.912;2022-11-11T00:16:55;102507.41;;;8.10;100.00
57668;BME280;43499;52.366;12.912;2022-11-11T00:18:54;102498.44;;;8.08;100.00
57668;BME280;43499;52.366;12.912;2022-11-11T00:20:51;102500.31;;;8.02;100.00
57668;BME280;43499;52.366;12.912;2022-11-11T00:22:52;102506.84;;;8.06;100.00
57668;BME280;43499;52.366;12.912;2022-11-11T00:25:08;102510.22;;;8.05;100.00
57668;BME280;43499;52.366;12.912;2022-11-11T00:27:31;102506.69;;;7.97;100.00
57668;BME280;43499;52.366;12.912;2022-11-11T00:29:18;102514.16;;;8.01;100.00
57668;BME280;43499;52.366;12.912;2022-11-11T00:33:23;102528.03;;;7.93;100.00
57668;BME280;43499;52.366;12.912;2022-11-11T00:35:03;102515.69;;;7.92;100.00
57668;BME280;43499;52.366;12.912;2022-11-11T00:40:16;102519.03;;;7.83;100.00
57668;BME280;43499;52.366;12.912;2022-11-11T00:41:36;102524.28;;;7.91;100.00
57668;BME280;43499;52.366;12.912;2022-11-11T00:42:56;102537.16;;;7.89;100.00
57668;BME280;43499;52.366;12.912;2022-11-11T00:44:16;102536.25;;;7.88;100.00
57668;BME280;43499;52.366;12.912;2022-11-11T00:45:37;102537.16;;;7.89;100.00
57668;BME280;43499;52.366;12.912;2022-11-11T00:46:57;102539.78;;;7.89;100.00
57668;BME280;43499;52.366;12.912;2022-11-11T00:48:38;102538.88;;;7.81;100.00
57668;BME280;43499;52.366;12.912;2022-11-11T00:50:23;102534.41;;;7.80;100.00
57668;BME280;43499;52.366;12.912;2022-11-11T00:52:02;102539.81;;;7.82;100.00
57668;BME280;43499;52.366;12.912;2022-11-11T00:53:24;102539.63;;;7.80;100.00
57668;BME280;43499;52.366;12.912;2022-11-11T00:54:47;102534.94;;;7.78;100.00
57668;BME280;43499;52.366;12.912;2022-11-11T00:56:07;102542.63;;;7.76;100.00
57668;BME280;43499;52.366;12.912;2022-11-11T00:58:22;102545.41;;;7.78;100.00
57668;BME280;43499;52.366;12.912;2022-11-11T01:00:44;102531.19;;;7.68;100.00
57668;BME280;43499;52.366;12.912;2022-11-11T01:03:02;102545.06;;;7.75;100.00
57668;BME280;43499;52.366;12.912;2022-11-11T01:04:26;102528.97;;;7.71;100.00
57668;BME280;43499;52.366;12.912;2022-11-11T01:06:33;102525.41;;;7.78;100.00
57668;BME280;43499;52.366;12.912;2022-11-11T01:08:23;102514.38;;;7.66;100.00
57668;BME280;43499;52.366;12.912;2022-11-11T01:10:25;102528.00;;;7.71;100.00
57668;BME280;43499;52.366;12.912;2022-11-11T01:12:24;102525.59;;;7.72;100.00
57668;BME280;43499;52.366;12.912;2022-11-11T01:14:21;102517.00;;;7.66;100.00
57668;BME280;43499;52.366;12.912;2022-11-11T01:16:26;102505.97;;;7.54;100.00
57668;BME280;43499;52.366;12.912;2022-11-11T01:18:15;102507.09;;;7.56;100.00
57668;BME280;43499;52.366;12.912;2022-11-11T01:19:36;102500.72;;;7.62;100.00
57668;BME280;43499;52.366;12.912;2022-11-11T01:21:20;102496.81;;;7.58;100.00
57668;BME280;43499;52.366;12.912;2022-11-11T01:23:03;102495.31;;;7.60;100.00
57668;BME280;43499;52.366;12.912;2022-11-11T01:24:41;102490.44;;;7.56;100.00
57668;BME280;43499;52.366;12.912;2022-11-11T01:26:26;102493.47;;;7.52;100.00
57668;BME280;43499;52.366;12.912;2022-11-11T01:28:15;102491.03;;;7.53;100.00
57668;BME280;43499;52.366;12.912;2022-11-11T01:30:40;102496.81;;;7.58;100.00
57668;BME280;43499;52.366;12.912;2022-11-11T01:32:44;102492.88;;;7.62;100.00
57668;BME280;43499;52.366;12.912;2022-11-11T01:34:48;102481.47;;;7.54;100.00
57668;BME280;43499;52.366;12.912;2022-11-11T01:36:48;102498.13;;;7.62;100.00
57668;BME280;43499;52.366;12.912;2022-11-11T01:38:23;102495.69;;;7.56;100.00
57668;BME280;43499;52.366;12.912;2022-11-11T01:39:46;102485.78;;;7.53;100.00
57668;BME280;43499;52.366;12.912;2022-11-11T01:41:48;102492.34;;;7.50;100.00
57668;BME280;43499;52.366;12.912;2022-11-11T01:43:48;102503.34;;;7.54;100.00
57668;BME280;43499;52.366;12.912;2022-11-11T01:45:53;102511.03;;;7.60;100.00
57668;BME280;43499;52.366;12.912;2022-11-11T01:48:03;102487.28;;;7.51;100.00
57668;BME280;43499;52.366;12.912;2022-11-11T01:59:11;102520.75;;;7.61;100.00
57668;BME280;43499;52.366;12.912;2022-11-11T02:01:23;102532.69;;;7.59;100.00
57668;BME280;43499;52.366;12.912;2022-11-11T02:05:56;102510.09;;;7.52;100.00
57668;BME280;43499;52.366;12.912;2022-11-11T02:07:23;102527.09;;;7.56;100.00
57668;BME280;43499;52.366;12.912;2022-11-11T02:11:41;102523.53;;;7.41;100.00
57668;BME280;43499;52.366;12.912;2022-11-11T02:13:49;102521.66;;;7.40;100.00
57668;BME280;43499;52.366;12.912;2022-11-11T02:15:35;102527.09;;;7.41;100.00
57668;BME280;43499;52.366;12.912;2022-11-11T02:16:57;102525.75;;;7.38;100.00
57668;BME280;43499;52.366;12.912;2022-11-11T02:19:01;102529.34;;;7.38;100.00
57668;BME280;43499;52.366;12.912;2022-11-11T02:25:23;102541.28;;;7.36;100.00
57668;BME280;43499;52.366;12.912;2022-11-11T02:30:31;102550.06;;;7.30;100.00
57668;BME280;43499;52.366;12.912;2022-11-11T02:32:04;102552.84;;;7.31;100.00
57668;BME280;43499;52.366;12.912;2022-11-11T02:33:24;102542.78;;;7.27;100.00
57668;BME280;43499;52.366;12.912;2022-11-11T02:42:00;102550.78;;;7.29;100.00
57668;BME280;43499;52.366;12.912;2022-11-11T02:43:44;102559.59;;;7.29;100.00
57668;BME280;43499;52.366;12.912;2022-11-11T02:45:29;102551.56;;;7.35;100.00
57668;BME280;43499;52.366;12.912;2022-11-11T02:48:03;102556.59;;;7.33;100.00
57668;BME280;43499;52.366;12.912;2022-11-11T02:50:18;102540.91;;;7.26;100.00
57668;BME280;43499;52.366;12.912;2022-11-11T02:54:23;102536.81;;;7.28;100.00
57668;BME280;43499;52.366;12.912;2022-11-11T02:56:03;102531.91;;;7.24;100.00
57668;BME280;43499;52.366;12.912;2022-11-11T02:58:00;102531.75;;;7.22;100.00
57668;BME280;43499;52.366;12.912;2022-11-11T03:07:35;102544.09;;;7.31;100.00
57668;BME280;43499;52.366;12.912;2022-11-11T03:09:07;102538.09;;;7.24;100.00
57668;BME280;43499;52.366;12.912;2022-11-11T03:11:36;102539.03;;;7.25;100.00
57668;BME280;43499;52.366;12.912;2022-11-11T03:13:38;102549.13;;;7.29;100.00
57668;BME280;43499;52.366;12.912;2022-11-11T03:15:15;102554.53;;;7.31;100.00
57668;BME280;43499;52.366;12.912;2022-11-11T03:16:42;102537.31;;;7.25;100.00
57668;BME280;43499;52.366;12.912;2022-11-11T03:18:40;102547.09;;;7.34;100.00
57668;BME280;43499;52.366;12.912;2022-11-11T03:22:38;102537.72;;;7.29;100.00
57668;BME280;43499;52.366;12.912;2022-11-11T03:24:54;102540.91;;;7.33;100.00
57668;BME280;43499;52.366;12.912;2022-11-11T03:30:19;102548.97;;;7.42;100.00
57668;BME280;43499;52.366;12.912;2022-11-11T03:32:23;102545.22;;;7.40;100.00
57668;BME280;43499;52.366;12.912;2022-11-11T03:34:03;102534.56;;;7.38;100.00
57668;BME280;43499;52.366;12.912;2022-11-11T03:41:40;102512.13;;;7.33;100.00
57668;BME280;43499;52.366;12.912;2022-11-11T03:48:54;102507.81;;;7.26;100.00
57668;BME280;43499;52.366;12.912;2022-11-11T03:50:40;102511.78;;;7.30;100.00
57668;BME280;43499;52.366;12.912;2022-11-11T03:55:30;102506.72;;;7.24;100.00
57668;BME280;43499;52.366;12.912;2022-11-11T03:59:10;102499.06;;;7.26;100.00
57668;BME280;43499;52.366;12.912;2022-11-11T04:01:10;102502.78;;;7.28;100.00
57668;BME280;43499;52.366;12.912;2022-11-11T04:08:51;102487.44;;;7.31;100.00
57668;BME280;43499;52.366;12.912;2022-11-11T04:10:50;102505.00;;;7.32;100.00
57668;BME280;43499;52.366;12.912;2022-11-11T04:15:09;102501.66;;;7.26;100.00
57668;BME280;43499;52.366;12.912;2022-11-11T04:23:03;102513.44;;;7.22;100.00
57668;BME280;43499;52.366;12.912;2022-11-11T04:24:47;102503.16;;;7.17;100.00
57668;BME280;43499;52.366;12.912;2022-11-11T04:28:58;102499.06;;;7.19;100.00
57668;BME280;43499;52.366;12.912;2022-11-11T04:36:46;102497.19;;;7.18;100.00
57668;BME280;43499;52.366;12.912;2022-11-11T04:38:18;102501.84;;;7.20;100.00
57668;BME280;43499;52.366;12.912;2022-11-11T04:40:21;102509.13;;;7.23;100.00
57668;BME280;43499;52.366;12.912;2022-11-11T04:42:47;102510.06;;;7.23;100.00
57668;BME280;43499;52.366;12.912;2022-11-11T04:45:38;102506.28;;;7.14;100.00
57668;BME280;43499;52.366;12.912;2022-11-11T04:49:44;102500.72;;;7.18;100.00
57668;BME280;43499;52.366;12.912;2022-11-11T04:54:25;102504.09;;;7.24;100.00
57668;BME280;43499;52.366;12.912;2022-11-11T04:56:28;102498.09;;;7.18;100.00
57668;BME280;43499;52.366;12.912;2022-11-11T05:03:40;102520.53;;;7.23;100.00
57668;BME280;43499;52.366;12.912;2022-11-11T05:05:00;102519.59;;;7.23;100.00
57668;BME280;43499;52.366;12.912;2022-11-11T05:06:20;102516.78;;;7.21;100.00
57668;BME280;43499;52.366;12.912;2022-11-11T05:10:56;102514.34;;;7.16;100.00
57668;BME280;43499;52.366;12.912;2022-11-11T05:12:24;102524.06;;;7.17;100.00
57668;BME280;43499;52.366;12.912;2022-11-11T05:13:44;102531.34;;;7.19;100.00
57668;BME280;43499;52.366;12.912;2022-11-11T05:15:35;102533.41;;;7.22;100.00
57668;BME280;43499;52.366;12.912;2022-11-11T05:19:54;102536.94;;;7.15;100.00
57668;BME280;43499;52.366;12.912;2022-11-11T05:21:39;102526.47;;;7.15;100.00
57668;BME280;43499;52.366;12.912;2022-11-11T05:29:06;102516.41;;;7.18;100.00
57668;BME280;43499;52.366;12.912;2022-11-11T05:30:48;102519.41;;;7.21;100.00
57668;BME280;43499;52.366;12.912;2022-11-11T05:32:27;102516.97;;;7.16;100.00
57668;BME280;43499;52.366;12.912;2022-11-11T05:37:09;102531.91;;;7.17;100.00
57668;BME280;43499;52.366;12.912;2022-11-11T05:39:27;102546.69;;;7.23;100.00
57668;BME280;43499;52.366;12.912;2022-11-11T05:44:16;102538.06;;;7.17;100.00
57668;BME280;43499;52.366;12.912;2022-11-11T05:48:31;102560.13;;;7.12;100.00
57668;BME280;43499;52.366;12.912;2022-11-11T05:55:37;102558.25;;;7.11;100.00
57668;BME280;43499;52.366;12.912;2022-11-11T05:56:57;102563.47;;;7.11;100.00
57668;BME280;43499;52.366;12.912;2022-11-11T05:58:20;102558.03;;;7.09;100.00
57668;BME280;43499;52.366;12.912;2022-11-11T06:02:50;102570.75;;;7.14;100.00
57668;BME280;43499;52.366;12.912;2022-11-11T06:04:33;102578.25;;;7.18;100.00
57668;BME280;43499;52.366;12.912;2022-11-11T06:05:59;102569.06;;;7.14;100.00
57668;BME280;43499;52.366;12.912;2022-11-11T06:08:21;102586.66;;;7.22;100.00
57668;BME280;43499;52.366;12.912;2022-11-11T06:09:59;102580.31;;;7.20;100.00
57668;BME280;43499;52.366;12.912;2022-11-11T06:12:26;102584.59;;;7.20;100.00
57668;BME280;43499;52.366;12.912;2022-11-11T06:22:03;102582.34;;;7.23;100.00
57668;BME280;43499;52.366;12.912;2022-11-11T06:24:04;102567.59;;;7.16;100.00
57668;BME280;43499;52.366;12.912;2022-11-11T06:28:00;102575.47;;;7.23;100.00
57668;BME280;43499;52.366;12.912;2022-11-11T06:30:12;102563.66;;;7.20;100.00
57668;BME280;43499;52.366;12.912;2022-11-11T06:34:28;102577.31;;;7.17;100.00
57668;BME280;43499;52.366;12.912;2022-11-11T06:36:16;102571.16;;;7.17;100.00
57668;BME280;43499;52.366;12.912;2022-11-11T06:38:29;102574.13;;;7.20;100.00
57668;BME280;43499;52.366;12.912;2022-11-11T06:40:24;102587.81;;;7.24;100.00
57668;BME280;43499;52.366;12.912;2022-11-11T06:47:28;102588.19;;;7.35;100.00
57668;BME280;43499;52.366;12.912;2022-11-11T06:49:11;102580.88;;;7.32;100.00
57668;BME280;43499;52.366;12.912;2022-11-11T06:50:54;102587.47;;;7.36;100.00
57668;BME280;43499;52.366;12.912;2022-11-11T06:53:02;102576.94;;;7.29;100.00
57668;BME280;43499;52.366;12.912;2022-11-11T06:55:01;102585.75;;;7.29;100.00
57668;BME280;43499;52.366;12.912;2022-11-11T06:57:07;102584.84;;;7.36;100.00
57668;BME280;43499;52.366;12.912;2022-11-11T07:01:09;102585.94;;;7.38;100.00
57668;BME280;43499;52.366;12.912;2022-11-11T07:04:18;102582.22;;;7.43;100.00
57668;BME280;43499;52.366;12.912;2022-11-11T07:06:19;102577.34;;;7.39;100.00
57668;BME280;43499;52.366;12.912;2022-11-11T07:07:47;102583.88;;;7.43;100.00
57668;BME280;43499;52.366;12.912;2022-11-11T07:11:36;102588.03;;;7.48;100.00
57668;BME280;43499;52.366;12.912;2022-11-11T07:13:22;102591.56;;;7.48;100.00
57668;BME280;43499;52.366;12.912;2022-11-11T07:15:12;102596.09;;;7.56;100.00
57668;BME280;43499;52.366;12.912;2022-11-11T07:16:55;102596.63;;;7.54;100.00
57668;BME280;43499;52.366;12.912;2022-11-11T07:24:31;102590.47;;;7.68;100.00
57668;BME280;43499;52.366;12.912;2022-11-11T07:26:28;102578.50;;;7.63;100.00
57668;BME280;43499;52.366;12.912;2022-11-11T07:31:31;102586.72;;;7.73;99.69
57668;BME280;43499;52.366;12.912;2022-11-11T07:33:11;102586.38;;;7.70;99.59
57668;BME280;43499;52.366;12.912;2022-11-11T07:35:08;102592.91;;;7.74;99.79
57668;BME280;43499;52.366;12.912;2022-11-11T07:42:00;102583.00;;;7.85;98.70
57668;BME280;43499;52.366;12.912;2022-11-11T07:43:23;102577.00;;;7.86;98.15
57668;BME280;43499;52.366;12.912;2022-11-11T07:45:23;102585.44;;;7.91;98.05
57668;BME280;43499;52.366;12.912;2022-11-11T07:55:23;102587.50;;;8.15;96.55
57668;BME280;43499;52.366;12.912;2022-11-11T07:58:00;102598.69;;;8.22;96.01
57668;BME280;43499;52.366;12.912;2022-11-11T07:59:48;102609.16;;;8.22;95.77
57668;BME280;43499;52.366;12.912;2022-11-11T08:01:20;102597.38;;;8.25;95.59
57668;BME280;43499;52.366;12.912;2022-11-11T08:06:21;102611.78;;;8.51;93.73
57668;BME280;43499;52.366;12.912;2022-11-11T08:08:07;102620.56;;;8.51;93.91
57668;BME280;43499;52.366;12.912;2022-11-11T08:09:41;102630.28;;;8.59;93.32
57668;BME280;43499;52.366;12.912;2022-11-11T08:11:23;102628.78;;;8.61;93.23
57668;BME280;43499;52.366;12.912;2022-11-11T08:16:18;102633.03;;;8.83;91.57
57668;BME280;43499;52.366;12.912;2022-11-11T08:17:58;102643.16;;;8.79;91.38
57668;BME280;43499;52.366;12.912;2022-11-11T08:19:42;102642.06;;;8.70;91.94
57668;BME280;43499;52.366;12.912;2022-11-11T08:21:39;102648.75;;;8.90;91.24
57668;BME280;43499;52.366;12.912;2022-11-11T08:23:18;102643.69;;;8.91;91.39
57668;BME280;43499;52.366;12.912;2022-11-11T08:25:20;102652.31;;;8.90;91.13
57668;BME280;43499;52.366;12.912;2022-11-11T08:27:27;102646.16;;;8.83;91.03
57668;BME280;43499;52.366;12.912;2022-11-11T08:29:12;102656.97;;;8.93;90.98
57668;BME280;43499;52.366;12.912;2022-11-11T08:31:01;102651.94;;;8.87;91.33
57668;BME280;43499;52.366;12.912;2022-11-11T08:32:32;102660.31;;;8.99;91.27
57668;BME280;43499;52.366;12.912;2022-11-11T08:35:46;102639.50;;;9.08;90.59
57668;BME280;43499;52.366;12.912;2022-11-11T08:39:08;102648.56;;;9.33;89.35
57668;BME280;43499;52.366;12.912;2022-11-11T08:43:27;102646.06;;;9.42;87.92
57668;BME280;43499;52.366;12.912;2022-11-11T08:44:51;102636.88;;;9.46;87.51
57668;BME280;43499;52.366;12.912;2022-11-11T08:54:53;102654.94;;;9.66;86.76
57668;BME280;43499;52.366;12.912;2022-11-11T08:59:12;102652.16;;;9.64;85.98
57668;BME280;43499;52.366;12.912;2022-11-11T09:01:16;102657.69;;;9.75;86.69
57668;BME280;43499;52.366;12.912;2022-11-11T09:05:04;102684.09;;;9.83;85.29
57668;BME280;43499;52.366;12.912;2022-11-11T09:06:48;102682.84;;;9.96;84.63
57668;BME280;43499;52.366;12.912;2022-11-11T09:08:11;102681.56;;;9.99;84.30
57668;BME280;43499;52.366;12.912;2022-11-11T09:09:33;102678.94;;;9.92;85.51
57668;BME280;43499;52.366;12.912;2022-11-11T09:11:21;102672.34;;;9.96;84.54
57668;BME280;43499;52.366;12.912;2022-11-11T09:13:16;102668.69;;;9.86;85.52
57668;BME280;43499;52.366;12.912;2022-11-11T09:17:25;102687.56;;;9.98;84.43
57668;BME280;43499;52.366;12.912;2022-11-11T09:19:20;102685.91;;;9.92;84.78
57668;BME280;43499;52.366;12.912;2022-11-11T09:28:31;102690.97;;;9.90;84.66
57668;BME280;43499;52.366;12.912;2022-11-11T09:33:20;102689.00;;;10.03;84.61
57668;BME280;43499;52.366;12.912;2022-11-11T09:48:59;102716.94;;;10.57;82.10
57668;BME280;43499;52.366;12.912;2022-11-11T09:51:31;102710.94;;;10.58;80.66
57668;BME280;43499;52.366;12.912;2022-11-11T09:53:36;102711.41;;;10.86;80.81
57668;BME280;43499;52.366;12.912;2022-11-11T10:01:31;102725.50;;;11.18;79.08
57668;BME280;43499;52.366;12.912;2022-11-11T10:06:28;102726.78;;;11.22;78.37
57668;BME280;43499;52.366;12.912;2022-11-11T10:10:57;102721.72;;;11.07;79.41
57668;BME280;43499;52.366;12.912;2022-11-11T10:24:32;102730.63;;;11.33;78.94
57668;BME280;43499;52.366;12.912;2022-11-11T10:27:03;102730.78;;;11.18;80.61
57668;BME280;43499;52.366;12.912;2022-11-11T10:39:07;102735.50;;;11.78;77.25
57668;BME280;43499;52.366;12.912;2022-11-11T10:41:26;102730.22;;;11.78;76.62
57668;BME280;43499;52.366;12.912;2022-11-11T10:43:36;102730.47;;;11.88;76.84
57668;BME280;43499;52.366;12.912;2022-11-11T10:51:24;102717.31;;;12.13;75.01
57668;BME280;43499;52.366;12.912;2022-11-11T10:55:21;102714.97;;;12.41;74.21
57668;BME280;43499;52.366;12.912;2022-11-11T11:01:30;102715.59;;;12.13;73.58
57668;BME280;43499;52.366;12.912;2022-11-11T11:08:01;102709.53;;;12.39;71.42
57668;BME280;43499;52.366;12.912;2022-11-11T11:10:42;102710.06;;;12.61;71.24
57668;BME280;43499;52.366;12.912;2022-11-11T11:21:12;102700.19;;;12.68;69.93
57668;BME280;43499;52.366;12.912;2022-11-11T11:23:11;102705.19;;;12.91;69.98
57668;BME280;43499;52.366;12.912;2022-11-11T11:30:18;102702.28;;;13.05;69.74
57668;BME280;43499;52.366;12.912;2022-11-11T11:32:31;102702.31;;;13.14;69.29
57668;BME280;43499;52.366;12.912;2022-11-11T11:34:00;102695.88;;;12.86;69.32
57668;BME280;43499;52.366;12.912;2022-11-11T11:35:54;102703.03;;;12.95;69.90
57668;BME280;43499;52.366;12.912;2022-11-11T11:37:26;102693.59;;;13.24;69.26
57668;BME280;43499;52.366;12.912;2022-11-11T11:38:59;102693.16;;;13.37;68.52
57668;BME280;43499;52.366;12.912;2022-11-11T11:40:20;102689.38;;;13.17;68.52
57668;BME280;43499;52.366;12.912;2022-11-11T11:41:55;102696.25;;;13.15;68.92
57668;BME280;43499;52.366;12.912;2022-11-11T11:43:39;102694.75;;;13.44;67.73
57668;BME280;43499;52.366;12.912;2022-11-11T11:45:59;102695.03;;;13.38;67.88
57668;BME280;43499;52.366;12.912;2022-11-11T11:50:40;102685.53;;;13.31;67.21
57668;BME280;43499;52.366;12.912;2022-11-11T11:52:11;102681.47;;;13.17;68.32
57668;BME280;43499;52.366;12.912;2022-11-11T11:54:10;102684.72;;;13.15;67.76
57668;BME280;43499;52.366;12.912;2022-11-11T12:08:38;102671.53;;;13.76;65.18
57668;BME280;43499;52.366;12.912;2022-11-11T12:13:01;102663.25;;;13.91;65.34
57668;BME280;43499;52.366;12.912;2022-11-11T12:17:18;102658.31;;;14.22;64.41
57668;BME280;43499;52.366;12.912;2022-11-11T13:01:05;102654.75;;;13.84;65.40
57668;BME280;43499;52.366;12.912;2022-11-11T13:05:22;102657.84;;;13.71;65.99
57668;BME280;43499;52.366;12.912;2022-11-11T13:15:48;102657.38;;;13.84;65.56
57668;BME280;43499;52.366;12.912;2022-11-11T13:36:16;102644.81;;;13.29;68.06
57668;BME280;43499;52.366;12.912;2022-11-11T13:38:25;102649.97;;;13.27;67.66
57668;BME280;43499;52.366;12.912;2022-11-11T13:40:07;102651.66;;;13.36;68.04
57668;BME280;43499;52.366;12.912;2022-11-11T13:42:45;102638.28;;;13.08;68.07
57668;BME280;43499;52.366;12.912;2022-11-11T13:44:30;102644.34;;;13.16;68.33
57668;BME280;43499;52.366;12.912;2022-11-11T13:47:25;102647.91;;;13.25;68.78
57668;BME280;43499;52.366;12.912;2022-11-11T13:48:58;102653.84;;;13.31;68.66
57668;BME280;43499;52.366;12.912;2022-11-11T13:51:18;102648.09;;;13.26;68.86
57668;BME280;43499;52.366;12.912;2022-11-11T13:53:33;102645.59;;;13.28;68.76
57668;BME280;43499;52.366;12.912;2022-11-11T13:55:45;102651.34;;;13.24;68.85
57668;BME280;43499;52.366;12.912;2022-11-11T13:57:57;102653.69;;;13.21;69.53
57668;BME280;43499;52.366;12.912;2022-11-11T14:07:48;102648.56;;;13.05;70.37
57668;BME280;43499;52.366;12.912;2022-11-11T14:16:59;102637.31;;;12.72;72.42
57668;BME280;43499;52.366;12.912;2022-11-11T14:21:09;102634.34;;;12.52;73.90
57668;BME280;43499;52.366;12.912;2022-11-11T14:23:13;102644.25;;;12.54;74.17
57668;BME280;43499;52.366;12.912;2022-11-11T14:27:31;102648.28;;;12.50;74.62
57668;BME280;43499;52.366;12.912;2022-11-11T14:40:29;102643.28;;;12.02;75.84
57668;BME280;43499;52.366;12.912;2022-11-11T14:41:58;102640.47;;;12.01;75.91
57668;BME280;43499;52.366;12.912;2022-11-11T14:44:27;102648.78;;;11.97;76.40
57668;BME280;43499;52.366;12.912;2022-11-11T14:46:12;102644.13;;;11.94;76.63
57668;BME280;43499;52.366;12.912;2022-11-11T14:47:57;102642.25;;;11.84;77.10
57668;BME280;43499;52.366;12.912;2022-11-11T14:49:53;102656.19;;;11.83;77.17
57668;BME280;43499;52.366;12.912;2022-11-11T14:55:35;102645.19;;;11.63;78.22
57668;BME280;43499;52.366;12.912;2022-11-11T15:00:30;102659.69;;;11.50;79.09
57668;BME280;43499;52.366;12.912;2022-11-11T15:07:05;102669.91;;;11.31;80.40
57668;BME280;43499;52.366;12.912;2022-11-11T15:40:01;102679.00;;;10.39;84.96
57668;BME280;43499;52.366;12.912;2022-11-11T15:42:12;102694.00;;;10.40;86.13
57668;BME280;43499;52.366;12.912;2022-11-11T15:43:40;102691.22;;;10.31;85.65
57668;BME280;43499;52.366;12.912;2022-11-11T15:54:43;102700.84;;;10.00;88.58
57668;BME280;43499;52.366;12.912;2022-11-11T15:56:43;102689.81;;;9.95;88.80
57668;BME280;43499;52.366;12.912;2022-11-11T16:00:47;102690.34;;;9.77;89.01
57668;BME280;43499;52.366;12.912;2022-11-11T16:02:39;102696.72;;;9.71;89.22
57668;BME280;43499;52.366;12.912;2022-11-11T16:04:17;102692.81;;;9.68;89.95
57668;BME280;43499;52.366;12.912;2022-11-11T16:06:36;102696.41;;;9.61;91.24
57668;BME280;43499;52.366;12.912;2022-11-11T16:09:15;102691.78;;;9.51;91.15
57668;BME280;43499;52.366;12.912;2022-11-11T16:11:12;102694.41;;;9.51;91.32
57668;BME280;43499;52.366;12.912;2022-11-11T16:13:15;102700.59;;;9.52;90.68
57668;BME280;43499;52.366;12.912;2022-11-11T16:14:36;102697.25;;;9.46;91.00
57668;BME280;43499;52.366;12.912;2022-11-11T16:16:29;102703.25;;;9.45;92.59
57668;BME280;43499;52.366;12.912;2022-11-11T16:17:58;102704.78;;;9.43;92.86
57668;BME280;43499;52.366;12.912;2022-11-11T16:20:05;102704.63;;;9.34;95.06
57668;BME280;43499;52.366;12.912;2022-11-11T16:21:45;102697.53;;;9.25;95.15
57668;BME280;43499;52.366;12.912;2022-11-11T16:33:41;102710.94;;;8.91;100.00
57668;BME280;43499;52.366;12.912;2022-11-11T16:35:46;102702.31;;;8.92;100.00
57668;BME280;43499;52.366;12.912;2022-11-11T16:37:10;102695.19;;;8.91;99.92
57668;BME280;43499;52.366;12.912;2022-11-11T16:38:36;102699.72;;;8.85;100.00
57668;BME280;43499;52.366;12.912;2022-11-11T16:42:31;102701.19;;;8.90;100.00
57668;BME280;43499;52.366;12.912;2022-11-11T16:44:47;102695.44;;;8.78;100.00
57668;BME280;43499;52.366;12.912;2022-11-11T16:46:23;102697.88;;;8.69;100.00
57668;BME280;43499;52.366;12.912;2022-11-11T16:49:06;102711.75;;;8.61;100.00
57668;BME280;43499;52.366;12.912;2022-11-11T16:50:57;102701.06;;;8.52;100.00
57668;BME280;43499;52.366;12.912;2022-11-11T16:52:59;102703.69;;;8.52;100.00
57668;BME280;43499;52.366;12.912;2022-11-11T16:54:47;102707.63;;;8.48;100.00
57668;BME280;43499;52.366;12.912;2022-11-11T16:57:02;102706.16;;;8.51;100.00
57668;BME280;43499;52.366;12.912;2022-11-11T16:59:44;102706.13;;;8.58;100.00
57668;BME280;43499;52.366;12.912;2022-11-11T17:02:16;102700.88;;;8.58;100.00
57668;BME280;43499;52.366;12.912;2022-11-11T17:04:17;102704.44;;;8.58;98.91
57668;BME280;43499;52.366;12.912;2022-11-11T17:11:08;102710.44;;;8.64;98.26
57668;BME280;43499;52.366;12.912;2022-11-11T17:12:57;102709.69;;;8.66;96.99
57668;BME280;43499;52.366;12.912;2022-11-11T17:14:40;102714.72;;;8.71;96.77
57668;BME280;43499;52.366;12.912;2022-11-11T17:16:17;102703.13;;;8.69;96.76
57668;BME280;43499;52.366;12.912;2022-11-11T17:18:00;102717.53;;;8.73;96.77
57668;BME280;43499;52.366;12.912;2022-11-11T17:20:19;102726.34;;;8.73;96.64
57668;BME280;43499;52.366;12.912;2022-11-11T17:22:11;102710.22;;;8.63;96.08
57668;BME280;43499;52.366;12.912;2022-11-11T17:26:02;102715.28;;;8.69;96.07
57668;BME280;43499;52.366;12.912;2022-11-11T17:27:22;102722.41;;;8.77;95.10
57668;BME280;43499;52.366;12.912;2022-11-11T17:29:16;102719.56;;;8.75;95.18
57668;BME280;43499;52.366;12.912;2022-11-11T17:31:03;102731.41;;;8.79;95.11
57668;BME280;43499;52.366;12.912;2022-11-11T17:33:10;102715.06;;;8.74;94.61
57668;BME280;43499;52.366;12.912;2022-11-11T17:34:42;102715.84;;;8.73;94.04
57668;BME280;43499;52.366;12.912;2022-11-11T17:36:21;102712.84;;;8.70;94.60
57668;BME280;43499;52.366;12.912;2022-11-11T17:38:04;102718.69;;;8.68;95.49
57668;BME280;43499;52.366;12.912;2022-11-11T17:44:43;102714.53;;;8.62;94.71
57668;BME280;43499;52.366;12.912;2022-11-11T17:46:30;102715.28;;;8.61;94.83
57668;BME280;43499;52.366;12.912;2022-11-11T17:48:40;102712.13;;;8.57;94.54
57668;BME280;43499;52.366;12.912;2022-11-11T17:50:10;102706.13;;;8.58;94.66